createdAt,value
2018-10-09T00:01:11.649Z,17.77
2018-10-09T00:03:41.753Z,17.70
2018-10-09T00:06:11.691Z,17.10
2018-10-09T00:08:41.704Z,18.27
2018-10-09T00:11:11.728Z,19.53
2018-10-09T00:13:41.879Z,17.87
2018-10-09T00:16:11.665Z,16.43
2018-10-09T00:18:41.278Z,16.30
2018-10-09T00:21:11.303Z,20.37
2018-10-09T00:23:41.038Z,19.93
2018-10-09T00:26:10.766Z,19.63
2018-10-09T00:28:40.626Z,18.87
2018-10-09T00:31:10.282Z,18.27
2018-10-09T00:33:46.795Z,19.00
2018-10-09T00:36:16.626Z,18.97
2018-10-09T00:38:46.357Z,19.73
2018-10-09T00:44:20.997Z,19.90
2018-10-09T00:46:50.870Z,19.50
2018-10-09T00:49:20.525Z,19.57
2018-10-09T00:51:50.202Z,20.50
2018-10-09T00:54:29.579Z,18.20
2018-10-09T00:56:59.381Z,18.40
2018-10-09T00:59:29.089Z,19.20
2018-10-09T01:01:58.693Z,19.10
2018-10-09T01:04:28.546Z,19.07
2018-10-09T01:06:58.218Z,17.93
2018-10-09T01:09:58.756Z,19.00
2018-10-09T01:12:28.533Z,18.67
2018-10-09T01:14:58.454Z,20.47
2018-10-09T01:17:28.382Z,18.73
2018-10-09T01:19:58.122Z,18.63
2018-10-09T01:22:28.291Z,18.63
2018-10-09T01:24:58.001Z,19.13
2018-10-09T01:27:32.711Z,18.67
2018-10-09T01:30:02.985Z,18.30
2018-10-09T01:32:32.666Z,17.37
2018-10-09T01:35:02.398Z,18.37
2018-10-09T01:37:32.117Z,17.70
2018-10-09T01:40:01.894Z,17.83
2018-10-09T01:42:31.690Z,18.27
2018-10-09T01:45:01.498Z,17.43
2018-10-09T01:47:31.399Z,18.23
2018-10-09T01:50:01.202Z,17.73
2018-10-09T01:52:30.901Z,18.47
2018-10-09T01:55:00.728Z,19.37
2018-10-09T01:57:30.458Z,19.10
2018-10-09T02:00:00.337Z,17.77
2018-10-09T02:02:30.133Z,18.70
2018-10-09T02:05:00.159Z,21.83
2018-10-09T02:07:29.950Z,18.43
2018-10-09T02:09:59.630Z,18.57
2018-10-09T02:12:29.333Z,20.13
2018-10-09T02:14:59.034Z,19.47
2018-10-09T02:17:28.785Z,20.80
2018-10-09T02:19:58.587Z,20.57
2018-10-09T02:22:28.214Z,19.60
2018-10-09T02:24:57.888Z,21.60
2018-10-09T02:27:27.701Z,20.43
2018-10-09T02:29:57.370Z,19.17
2018-10-09T02:32:27.082Z,18.53
2018-10-09T02:34:56.790Z,17.83
2018-10-09T02:37:26.501Z,19.60
2018-10-09T02:39:56.222Z,19.37
2018-10-09T02:42:26.169Z,18.60
2018-10-09T02:44:55.988Z,17.37
2018-10-09T02:47:25.689Z,19.13
2018-10-09T02:49:55.369Z,19.80
2018-10-09T02:52:25.047Z,17.23
2018-10-09T02:54:54.711Z,17.17
2018-10-09T02:57:24.465Z,19.10
2018-10-09T02:59:54.174Z,20.30
2018-10-09T03:02:23.913Z,18.83
2018-10-09T03:05:05.605Z,19.90
2018-10-09T03:07:35.698Z,20.70
2018-10-09T03:10:05.622Z,21.37
2018-10-09T03:12:35.319Z,20.23
2018-10-09T03:15:06.146Z,21.30
2018-10-09T03:17:35.930Z,20.17
2018-10-09T03:20:05.706Z,20.37
2018-10-09T03:22:35.347Z,20.23
2018-10-09T03:25:05.248Z,20.17
2018-10-09T03:27:34.937Z,19.93
2018-10-09T03:30:13.031Z,19.10
2018-10-09T03:32:42.802Z,19.83
2018-10-09T03:35:12.513Z,20.17
2018-10-09T03:37:42.314Z,19.73
2018-10-09T03:40:12.362Z,20.00
2018-10-09T03:42:42.521Z,19.90
2018-10-09T03:45:12.267Z,20.37
2018-10-09T03:47:42.446Z,20.10
2018-10-09T03:50:12.298Z,19.27
2018-10-09T03:52:42.210Z,19.83
2018-10-09T03:55:12.021Z,19.90
2018-10-09T03:57:42.214Z,20.20
2018-10-09T04:00:12.012Z,19.97
2018-10-09T04:02:41.817Z,20.40
2018-10-09T04:05:11.454Z,19.07
2018-10-09T04:07:41.503Z,20.37
2018-10-09T04:10:11.169Z,19.87
2018-10-09T04:12:41.053Z,18.83
2018-10-09T04:15:10.804Z,20.77
2018-10-09T04:17:40.629Z,20.87
2018-10-09T04:20:10.366Z,19.30
2018-10-09T04:22:40.175Z,19.13
2018-10-09T04:25:10.362Z,19.10
2018-10-09T04:27:40.042Z,21.17
2018-10-09T04:30:09.762Z,18.67
2018-10-09T04:32:39.455Z,20.77
2018-10-09T04:35:09.111Z,19.40
2018-10-09T04:37:38.819Z,19.17
2018-10-09T04:40:12.281Z,19.83
2018-10-09T04:42:42.614Z,20.00
2018-10-09T04:45:13.147Z,20.27
2018-10-09T04:47:42.814Z,19.90
2018-10-09T04:50:12.457Z,19.53
2018-10-09T04:52:42.231Z,19.90
2018-10-09T04:55:11.906Z,20.03
2018-10-09T04:57:41.566Z,19.03
2018-10-09T05:03:22.378Z,18.87
2018-10-09T05:05:52.120Z,18.73
2018-10-09T05:08:21.830Z,17.77
2018-10-09T05:10:51.602Z,18.27
2018-10-09T05:13:46.125Z,18.40
2018-10-09T05:16:15.849Z,18.67
2018-10-09T05:22:10.211Z,18.87
2018-10-09T05:24:39.854Z,21.57
2018-10-09T05:27:14.913Z,20.90
2018-10-09T05:29:44.654Z,20.87
2018-10-09T05:32:14.297Z,20.27
2018-10-09T05:34:44.065Z,20.90
2018-10-09T05:37:13.729Z,20.40
2018-10-09T05:39:43.358Z,21.93
2018-10-09T05:42:13.056Z,21.20
2018-10-09T05:44:43.052Z,22.77
2018-10-09T05:47:13.127Z,21.40
2018-10-09T05:49:43.102Z,22.90
2018-10-09T05:52:12.790Z,19.90
2018-10-09T05:54:42.425Z,22.60
2018-10-09T05:57:12.066Z,22.77
2018-10-09T05:59:41.849Z,22.53
2018-10-09T06:02:11.889Z,21.73
2018-10-09T06:04:41.501Z,22.50
2018-10-09T06:07:11.153Z,22.07
2018-10-09T06:09:40.829Z,21.40
2018-10-09T06:12:10.620Z,23.63
2018-10-09T06:14:40.299Z,23.10
2018-10-09T06:17:09.941Z,23.10
2018-10-09T06:19:39.641Z,20.63
2018-10-09T06:22:09.286Z,22.30
2018-10-09T06:24:38.938Z,21.50
2018-10-09T06:27:08.617Z,22.67
2018-10-09T06:29:38.321Z,22.03
2018-10-09T06:32:31.250Z,21.47
2018-10-09T06:35:00.960Z,19.77
2018-10-09T06:37:30.566Z,21.13
2018-10-09T06:40:00.157Z,21.33
2018-10-09T06:42:29.817Z,23.43
2018-10-09T06:44:59.497Z,22.23
2018-10-09T06:47:29.270Z,21.77
2018-10-09T06:49:59.153Z,23.50
2018-10-09T06:52:28.913Z,22.53
2018-10-09T06:58:11.617Z,23.77
2018-10-09T07:00:41.447Z,23.90
2018-10-09T07:03:11.226Z,24.23
2018-10-09T07:05:41.673Z,25.67
2018-10-09T07:08:15.587Z,25.10
2018-10-09T07:10:45.335Z,24.17
2018-10-09T07:13:16.008Z,23.93
2018-10-09T07:15:48.248Z,25.83
2018-10-09T07:18:20.247Z,26.33
2018-10-09T07:20:52.863Z,25.70
2018-10-09T07:23:25.187Z,25.80
2018-10-09T07:25:54.951Z,26.70
2018-10-09T07:28:24.663Z,25.87
2018-10-09T07:30:54.634Z,26.23
2018-10-09T07:33:24.263Z,26.10
2018-10-09T07:35:54.059Z,24.43
2018-10-09T07:38:23.895Z,24.93
2018-10-09T07:40:53.938Z,23.67
2018-10-09T07:43:23.633Z,23.63
2018-10-09T07:45:53.322Z,25.67
2018-10-09T07:48:22.926Z,24.80
2018-10-09T07:50:52.719Z,24.17
2018-10-09T07:53:22.310Z,25.47
2018-10-09T07:55:52.083Z,24.93
2018-10-09T07:58:21.980Z,25.73
2018-10-09T08:00:51.703Z,26.03
2018-10-09T08:03:21.533Z,24.97
2018-10-09T08:05:51.220Z,25.90
2018-10-09T08:08:20.982Z,24.70
2018-10-09T08:10:51.462Z,25.27
2018-10-09T08:13:21.275Z,25.07
2018-10-09T08:15:50.967Z,25.33
2018-10-09T08:18:20.731Z,24.73
2018-10-09T08:20:50.408Z,25.00
2018-10-09T08:23:20.114Z,24.33
2018-10-09T08:25:49.943Z,24.87
2018-10-09T08:28:19.603Z,26.03
2018-10-09T08:30:49.237Z,25.10
2018-10-09T08:33:18.927Z,23.07
2018-10-09T08:35:48.574Z,22.70
2018-10-09T08:38:18.197Z,23.47
2018-10-09T08:40:48.079Z,23.93
2018-10-09T08:43:17.711Z,24.60
2018-10-09T08:45:47.681Z,24.20
2018-10-09T08:48:17.398Z,24.80
2018-10-09T08:50:47.118Z,24.17
2018-10-09T08:53:16.951Z,23.27
2018-10-09T08:55:46.998Z,22.40
2018-10-09T08:58:18.404Z,23.40
2018-10-09T09:00:51.755Z,24.20
2018-10-09T09:03:21.375Z,23.57
2018-10-09T09:05:52.227Z,23.07
2018-10-09T09:08:22.278Z,21.70
2018-10-09T09:10:51.999Z,21.90
2018-10-09T09:13:21.783Z,21.67
2018-10-09T09:15:51.750Z,21.20
2018-10-09T09:18:21.456Z,21.40
2018-10-09T09:20:51.114Z,20.03
2018-10-09T09:23:20.677Z,20.43
2018-10-09T09:25:50.419Z,20.53
2018-10-09T09:28:20.218Z,20.43
2018-10-09T09:30:49.819Z,19.67
2018-10-09T09:33:19.523Z,22.17
2018-10-09T09:35:49.127Z,21.00
2018-10-09T09:38:18.865Z,21.67
2018-10-09T09:40:48.818Z,21.33
2018-10-09T09:43:19.510Z,21.27
2018-10-09T09:45:49.783Z,20.93
2018-10-09T09:48:19.446Z,18.20
2018-10-09T09:50:50.994Z,17.00
2018-10-09T09:53:24.217Z,18.07
2018-10-09T09:55:54.327Z,17.93
2018-10-09T09:58:24.094Z,19.23
2018-10-09T10:01:03.059Z,17.77
2018-10-09T10:03:32.539Z,17.03
2018-10-09T10:06:02.087Z,18.93
2018-10-09T10:08:31.437Z,18.40
2018-10-09T10:11:02.166Z,17.40
2018-10-09T10:13:32.529Z,15.87
2018-10-09T10:16:01.906Z,17.77
2018-10-09T10:18:42.497Z,16.23
2018-10-09T10:21:12.054Z,15.40
2018-10-09T10:23:41.339Z,14.37
2018-10-09T10:26:10.749Z,14.57
2018-10-09T10:28:40.239Z,13.60
2018-10-09T10:31:09.645Z,13.00
2018-10-09T10:33:39.035Z,14.17
2018-10-09T10:36:08.830Z,13.53
2018-10-09T10:38:38.193Z,14.03
2018-10-09T10:41:08.062Z,13.93
2018-10-09T10:43:37.537Z,13.93
2018-10-09T10:46:07.258Z,12.77
2018-10-09T10:48:36.696Z,14.27
2018-10-09T10:51:06.017Z,12.23
2018-10-09T10:53:35.833Z,13.03
2018-10-09T10:56:05.324Z,12.40
2018-10-09T10:58:34.649Z,12.33
2018-10-09T11:01:04.110Z,11.73
2018-10-09T11:03:33.433Z,11.67
2018-10-09T11:06:02.989Z,11.27
2018-10-09T11:08:32.501Z,11.63
2018-10-09T11:11:01.885Z,12.60
2018-10-09T11:13:32.173Z,13.27
2018-10-09T11:16:01.551Z,13.37
2018-10-09T11:18:30.932Z,13.10
2018-10-09T11:21:00.434Z,12.37
2018-10-09T11:23:30.155Z,11.77
2018-10-09T11:25:59.538Z,13.17
2018-10-09T11:28:29.041Z,12.47
2018-10-09T11:30:58.401Z,12.33
2018-10-09T11:33:27.771Z,13.50
2018-10-09T11:35:57.146Z,12.30
2018-10-09T11:38:26.462Z,12.37
2018-10-09T11:40:55.901Z,13.43
2018-10-09T11:43:25.469Z,14.60
2018-10-09T11:45:55.367Z,14.83
2018-10-09T11:48:24.907Z,14.67
2018-10-09T11:50:54.355Z,13.73
2018-10-09T11:53:23.673Z,13.77
2018-10-09T11:55:53.393Z,13.83
2018-10-09T11:58:23.308Z,14.73
2018-10-09T12:00:55.093Z,15.37
2018-10-09T12:03:24.569Z,13.70
2018-10-09T12:05:54.056Z,12.93
2018-10-09T12:08:24.216Z,13.45
2018-10-09T12:10:53.618Z,12.75
2018-10-09T12:13:23.149Z,12.10
2018-10-09T12:15:53.254Z,12.90
2018-10-09T12:18:22.721Z,12.47
2018-10-09T12:20:52.033Z,13.18
2018-10-09T12:23:21.434Z,12.68
2018-10-09T12:25:51.205Z,10.70
2018-10-09T12:28:20.545Z,12.43
2018-10-09T12:30:50.112Z,12.33
2018-10-09T12:33:19.511Z,11.03
2018-10-09T12:35:48.942Z,11.00
2018-10-09T12:38:18.305Z,12.68
2018-10-09T12:40:47.876Z,13.25
2018-10-09T12:43:17.184Z,13.55
2018-10-09T12:45:48.372Z,14.45
2018-10-09T12:48:17.685Z,13.90
2018-10-09T12:50:47.476Z,13.88
2018-10-09T12:53:18.381Z,12.65
2018-10-09T12:55:48.240Z,13.38
2018-10-09T12:58:17.674Z,12.80
2018-10-09T13:00:47.882Z,12.85
2018-10-09T13:03:17.194Z,13.78
2018-10-09T13:05:47.561Z,13.25
2018-10-09T13:08:17.046Z,14.95
2018-10-09T13:10:46.602Z,13.50
2018-10-09T13:13:16.217Z,13.18
2018-10-09T13:15:45.722Z,13.13
2018-10-09T13:18:15.528Z,13.45
2018-10-09T13:20:45.632Z,12.13
2018-10-09T13:23:15.026Z,11.78
2018-10-09T13:25:44.494Z,13.18
2018-10-09T13:28:13.800Z,13.75
2018-10-09T13:30:43.492Z,12.43
2018-10-09T13:33:13.081Z,12.53
2018-10-09T13:35:42.520Z,11.33
2018-10-09T13:38:11.999Z,12.43
2018-10-09T13:40:41.301Z,13.60
2018-10-09T13:43:10.597Z,14.35
2018-10-09T13:45:39.926Z,13.03
2018-10-09T13:48:09.565Z,11.57
2018-10-09T13:50:38.918Z,11.30
2018-10-09T13:53:08.332Z,12.98
2018-10-09T13:55:37.697Z,11.43
2018-10-09T13:58:07.164Z,11.65
2018-10-09T14:00:36.553Z,11.65
2018-10-09T14:03:05.965Z,12.30
2018-10-09T14:05:35.327Z,11.00
2018-10-09T14:08:04.757Z,11.68
2018-10-09T14:10:34.185Z,12.00
2018-10-09T14:13:03.586Z,12.73
2018-10-09T14:15:33.125Z,12.98
2018-10-09T14:18:23.586Z,10.95
2018-10-09T14:20:52.942Z,11.60
2018-10-09T14:23:44.601Z,11.50
2018-10-09T14:26:14.133Z,11.60
2018-10-09T14:28:43.670Z,10.97
2018-10-09T14:31:13.236Z,10.30
2018-10-09T14:33:42.653Z,10.13
2018-10-09T14:36:13.370Z,11.25
2018-10-09T14:38:42.709Z,12.07
2018-10-09T14:41:12.626Z,13.08
2018-10-09T14:43:42.163Z,12.18
2018-10-09T14:46:11.572Z,12.67
2018-10-09T14:48:41.125Z,12.65
2018-10-09T14:51:22.897Z,13.13
2018-10-09T14:53:52.665Z,11.85
2018-10-09T14:56:22.333Z,10.50
2018-10-09T14:58:54.380Z,12.40
2018-10-09T15:01:24.814Z,9.95
2018-10-09T15:03:55.202Z,12.25
2018-10-09T15:06:24.817Z,12.88
2018-10-09T15:08:54.186Z,10.32
2018-10-09T15:11:24.971Z,10.45
2018-10-09T15:13:59.089Z,9.38
2018-10-09T15:16:33.185Z,9.10
2018-10-09T15:19:09.451Z,9.30
2018-10-09T15:21:40.202Z,9.08
2018-10-09T15:24:11.268Z,9.90
2018-10-09T15:26:41.385Z,9.50
2018-10-09T15:29:13.304Z,12.10
2018-10-09T15:31:42.973Z,11.28
2018-10-09T15:34:17.315Z,11.10
2018-10-09T15:36:46.978Z,10.23
2018-10-09T15:39:20.939Z,10.08
2018-10-09T15:41:50.398Z,10.58
2018-10-09T15:44:23.769Z,11.75
2018-10-09T15:46:59.476Z,10.75
2018-10-09T15:49:29.082Z,9.58
2018-10-09T15:51:58.706Z,10.37
2018-10-09T15:54:28.307Z,11.80
2018-10-09T15:56:57.915Z,9.47
2018-10-09T15:59:27.575Z,8.63
2018-10-09T16:01:57.254Z,7.90
2018-10-09T16:04:26.910Z,9.43
2018-10-09T16:06:56.623Z,9.60
2018-10-09T16:09:26.275Z,10.00
2018-10-09T16:11:55.931Z,9.33
2018-10-09T16:14:25.922Z,9.77
2018-10-09T16:16:55.651Z,9.90
2018-10-09T16:19:25.352Z,10.17
2018-10-09T16:21:55.041Z,10.27
2018-10-09T16:24:24.710Z,11.03
2018-10-09T16:26:54.116Z,10.73
2018-10-09T16:29:23.489Z,11.10
2018-10-09T16:31:53.227Z,11.33
2018-10-09T16:34:23.113Z,9.90
2018-10-09T16:36:52.712Z,10.57
2018-10-09T16:39:22.530Z,10.50
2018-10-09T16:41:52.305Z,10.80
2018-10-09T16:44:22.008Z,11.77
2018-10-09T16:46:51.663Z,10.90
2018-10-09T16:49:21.337Z,11.23
2018-10-09T16:51:50.995Z,12.60
2018-10-09T16:54:20.679Z,11.23
2018-10-09T16:56:50.377Z,12.70
2018-10-09T16:59:19.993Z,12.23
2018-10-09T17:01:49.983Z,12.87
2018-10-09T17:04:19.847Z,11.93
2018-10-09T17:06:50.680Z,12.07
2018-10-09T17:09:22.746Z,13.10
2018-10-09T17:11:53.353Z,13.67
2018-10-09T17:14:23.668Z,13.37
2018-10-09T17:16:57.182Z,11.93
2018-10-09T17:19:26.803Z,11.83
2018-10-09T17:21:56.467Z,13.67
2018-10-09T17:24:26.172Z,12.73
2018-10-09T17:26:55.926Z,12.17
2018-10-09T17:29:25.493Z,13.27
2018-10-09T17:31:55.264Z,14.43
2018-10-09T17:34:29.484Z,13.03
2018-10-09T17:36:59.123Z,13.20
2018-10-09T17:39:28.784Z,13.20
2018-10-09T17:41:58.558Z,12.17
2018-10-09T17:44:28.446Z,12.70
2018-10-09T17:47:05.253Z,14.27
2018-10-09T17:49:42.318Z,13.80
2018-10-09T17:52:16.969Z,12.20
2018-10-09T17:54:47.064Z,12.73
2018-10-09T17:57:17.523Z,12.37
2018-10-09T17:59:47.270Z,12.60
2018-10-09T18:02:23.818Z,12.20
2018-10-09T18:04:53.512Z,12.90
2018-10-09T18:07:25.051Z,13.10
2018-10-09T18:09:56.882Z,13.07
2018-10-09T18:12:30.342Z,13.57
2018-10-09T18:15:04.001Z,12.37
2018-10-09T18:17:33.785Z,11.47
2018-10-09T18:20:03.471Z,12.00
2018-10-09T18:22:33.395Z,11.63
2018-10-09T18:25:03.566Z,12.80
2018-10-09T18:27:34.153Z,14.07
2018-10-09T18:30:05.848Z,13.70
2018-10-09T18:32:38.173Z,13.63
2018-10-09T18:35:13.828Z,13.57
2018-10-09T18:37:44.986Z,13.93
2018-10-09T18:40:14.806Z,13.53
2018-10-09T18:42:46.597Z,13.47
2018-10-09T18:45:35.225Z,13.17
2018-10-09T18:48:05.715Z,13.17
2018-10-09T18:50:37.319Z,13.97
2018-10-09T18:53:07.051Z,12.70
2018-10-09T18:55:37.272Z,15.03
2018-10-09T18:58:08.022Z,14.30
2018-10-09T19:00:37.864Z,15.20
2018-10-09T19:03:10.221Z,14.90
2018-10-09T19:05:39.885Z,14.60
2018-10-09T19:08:09.690Z,16.00
2018-10-09T19:10:41.815Z,14.13
2018-10-09T19:13:11.555Z,12.63
2018-10-09T19:15:41.707Z,12.33
2018-10-09T19:18:13.075Z,12.80
2018-10-09T19:20:46.882Z,12.67
2018-10-09T19:23:19.042Z,13.57
2018-10-09T19:25:48.860Z,13.37
2018-10-09T19:28:25.779Z,14.07
2018-10-09T19:30:57.981Z,16.10
2018-10-09T19:33:30.003Z,17.73
2018-10-09T19:36:10.461Z,15.33
2018-10-09T19:38:40.149Z,16.20
2018-10-09T19:41:09.879Z,18.47
2018-10-09T19:43:41.770Z,18.67
2018-10-09T19:46:12.302Z,18.47
2018-10-09T19:48:42.431Z,16.30
2018-10-09T19:51:12.122Z,16.07
2018-10-09T19:53:41.755Z,17.27
2018-10-09T19:56:11.487Z,15.73
2018-10-09T19:58:41.101Z,16.13
2018-10-09T20:01:20.437Z,15.83
2018-10-09T20:03:54.404Z,16.77
2018-10-09T20:06:28.828Z,17.03
2018-10-09T20:09:02.622Z,16.17
2018-10-09T20:11:32.260Z,16.47
2018-10-09T20:14:01.581Z,16.03
2018-10-09T20:16:42.660Z,15.17
2018-10-09T20:19:19.033Z,15.87
2018-10-09T20:21:51.085Z,15.50
2018-10-09T20:24:25.495Z,16.67
2018-10-09T20:26:55.172Z,16.80
2018-10-09T20:29:31.489Z,18.47
2018-10-09T20:32:03.620Z,18.03
2018-10-09T20:34:38.540Z,19.63
2018-10-09T20:37:15.066Z,21.93
2018-10-09T20:39:45.541Z,17.93
2018-10-09T20:42:19.202Z,18.50
2018-10-09T20:44:48.765Z,18.23
2018-10-09T20:47:30.698Z,18.70
2018-10-09T20:50:04.128Z,19.27
2018-10-09T20:52:34.327Z,19.33
2018-10-09T20:55:06.008Z,19.47
2018-10-09T20:57:44.016Z,20.03
2018-10-09T21:00:14.888Z,18.13
2018-10-09T21:02:47.467Z,17.97
2018-10-09T21:05:17.547Z,19.63
2018-10-09T21:07:48.770Z,18.83
2018-10-09T21:10:19.102Z,19.07
2018-10-09T21:12:49.040Z,16.50
2018-10-09T21:15:19.870Z,17.27
2018-10-09T21:17:52.063Z,17.33
2018-10-09T21:20:21.621Z,18.77
2018-10-09T21:22:51.377Z,18.30
2018-10-09T21:25:22.282Z,18.97
2018-10-09T21:27:55.710Z,20.17
2018-10-09T21:30:25.850Z,19.73
2018-10-09T21:32:57.323Z,20.80
2018-10-09T21:35:27.874Z,20.57
2018-10-09T21:38:00.170Z,21.17
2018-10-09T21:40:29.722Z,20.83
2018-10-09T21:42:59.146Z,22.23
2018-10-09T21:45:38.491Z,20.83
2018-10-09T21:48:08.047Z,20.23
2018-10-09T21:50:37.934Z,20.30
2018-10-09T21:53:25.318Z,19.97
2018-10-09T21:55:54.996Z,19.53
2018-10-09T21:58:26.924Z,20.47
2018-10-09T22:01:02.781Z,19.43
2018-10-09T22:03:39.458Z,19.03
2018-10-09T22:06:09.689Z,19.27
2018-10-09T22:08:39.206Z,18.07
2018-10-09T22:11:09.268Z,19.40
2018-10-09T22:13:45.202Z,19.63
2018-10-09T22:16:16.209Z,21.13
2018-10-09T22:18:45.797Z,20.70
2018-10-09T22:21:16.029Z,21.93
2018-10-09T22:23:46.714Z,20.60
2018-10-09T22:26:16.422Z,19.93
2018-10-09T22:28:46.019Z,20.83
2018-10-09T22:31:15.457Z,20.20
2018-10-09T22:33:44.811Z,20.17
2018-10-09T22:36:14.225Z,21.83
2018-10-09T22:38:44.157Z,21.03
2018-10-09T22:41:13.593Z,21.17
2018-10-09T22:43:43.001Z,21.77
2018-10-09T22:46:12.698Z,20.80
2018-10-09T22:48:42.498Z,20.47
2018-10-09T22:51:11.819Z,21.83
2018-10-09T22:53:41.515Z,17.80
2018-10-09T22:56:10.841Z,18.73
2018-10-09T22:58:41.678Z,19.27
2018-10-09T23:01:11.166Z,20.03
2018-10-09T23:03:40.596Z,19.20
2018-10-09T23:06:10.121Z,19.70
2018-10-09T23:08:39.601Z,18.90
2018-10-09T23:11:09.556Z,19.10
2018-10-09T23:13:39.009Z,20.93
2018-10-09T23:16:08.973Z,22.43
2018-10-09T23:18:38.450Z,21.37
2018-10-09T23:21:08.034Z,23.23
2018-10-09T23:23:37.389Z,21.50
2018-10-09T23:26:06.948Z,19.73
2018-10-09T23:28:36.397Z,22.07
2018-10-09T23:31:12.172Z,22.27
2018-10-09T23:33:41.699Z,22.90
2018-10-09T23:36:11.121Z,21.87
2018-10-09T23:38:40.458Z,23.17
2018-10-09T23:41:09.776Z,22.40
2018-10-09T23:43:39.125Z,20.67
2018-10-09T23:46:12.486Z,22.90
2018-10-09T23:48:41.822Z,22.77
2018-10-09T23:51:11.154Z,22.07
2018-10-09T23:53:40.540Z,23.93
2018-10-09T23:56:09.866Z,21.53
2018-10-09T23:58:39.344Z,21.40
